MSC Turchia — A8IL9 — position and weather

sailwx.info

Track history (hours):
 
Tides and Currents Weather Stations Pressure Air Temp Water Temp Dewpoint Dewpoint Depression Visibility Wind Speed Wind Dir Waves Ship Positions

MSC Turchia

Last reported at 2015-Sep-17 19:31 UTC. Time now 2016-Feb-10 06:46 UTC.
Position N 26°04' W 080°07'.
Warning: this ship's position is months out of date.

Length 276 m; beam 40 m; draft 14 m.

Date/timePositionNaut miles runAvg speedWind from/ knotsBaromVisibWave heightAir tempDewpointWater temp
2015-Sep-17 19:31N 26°04' W 080°07'0 0.0
2015-Sep-17 18:31N 26°04' W 080°07'0 0.0
2015-Sep-17 17:31N 26°04' W 080°07'0 0.1
2015-Sep-17 16:34N 26°04' W 080°07'3 3.2
2015-Sep-17 15:33N 26°05' W 080°04'3 3.4
2015-Sep-17 14:33N 26°08' W 080°02'0 0.4
2015-Sep-17 13:33N 26°08' W 080°01'1110.9
2015-Sep-17 12:33N 26°19' W 079°59'1110.9
2015-Sep-17 11:33N 26°29' W 079°56'1110.6
2015-Sep-17 10:33N 26°40' W 079°53'1010.4
2015-Sep-17 09:33N 26°50' W 079°55'1111.0
2015-Sep-17 08:33N 27°01' W 079°56'1110.1
2015-Sep-17 07:27N 27°12' W 079°57'  
2015-Sep-13 17:24N 34°13' W 076°26'1113.5
2015-Sep-13 16:33N 34°22' W 076°17'1413.6
2015-Sep-13 15:33N 34°32' W 076°07'240 5.7
2015-Sep-11 21:15N 38°22' W 074°40'912.4
2015-Sep-11 20:33N 38°29' W 074°46'1312.8
2015-Sep-11 19:33N 38°40' W 074°56'1413.7
2015-Sep-11 18:33N 38°51' W 075°05'1616.1
2015-Sep-11 17:33N 39°06' W 075°12'3615.5
2015-Sep-11 15:15N 39°38' W 075°35'812.0
2015-Sep-11 14:33N 39°45' W 075°29'1010.3
2015-Sep-11 13:33N 39°51' W 075°18'8 8.3
2015-Sep-11 12:32N 39°54' W 075°08'0 0.1
2015-Sep-11 11:32N 39°54' W 075°08'0 0.0
2015-Sep-11 10:32N 39°54' W 075°08'0 0.0
2015-Sep-11 09:32N 39°54' W 075°08'0 0.0
2015-Sep-11 08:32N 39°54' W 075°08'0 0.0
2015-Sep-11 07:32N 39°54' W 075°08'0 0.0
2015-Sep-11 06:32N 39°54' W 075°08'0 0.0
2015-Sep-11 05:32N 39°54' W 075°08'0 0.0
2015-Sep-11 04:32N 39°54' W 075°08'0 0.0
2015-Sep-11 03:32N 39°54' W 075°08'0 0.0
2015-Sep-11 02:32N 39°54' W 075°08'0 0.4
2015-Sep-11 01:33N 39°54' W 075°08'8 7.5
2015-Sep-11 00:33N 39°51' W 075°17'1110.6
2015-Sep-10 23:33N 39°45' W 075°29'1312.6
2015-Sep-10 22:34N 39°33' W 075°32'3115.6
2015-Sep-10 20:33N 39°06' W 075°12'1414.3
2015-Sep-10 19:33N 38°53' W 075°05'10 9.8
2015-Sep-10 18:33N 38°45' W 074°57'1715.5
2015-Sep-10 17:29N 38°32' W 074°44'9 9.7
2015-Sep-10 16:33N 38°34' W 074°33'1915.2
2015-Sep-10 15:17N 38°52' W 074°22'1215.8
2015-Sep-10 14:31N 39°03' W 074°15'1516.0
2015-Sep-10 13:33N 39°17' W 074°07'1616.0
2015-Sep-10 12:33N 39°31' W 073°58'1715.6
2015-Sep-10 11:29N 39°47' W 073°52'1716.2
2015-Sep-10 10:28N 40°04' W 073°51'1516.1
2015-Sep-10 09:33N 40°18' W 073°49'1111.1
2015-Sep-10 08:33N 40°29' W 073°54'1312.9
2015-Sep-10 07:34N 40°39' W 074°03'2 1.6
2015-Sep-10 06:33N 40°40' W 074°05'0 0.0
2015-Sep-10 05:33N 40°40' W 074°05'0 0.0
2015-Sep-10 04:33N 40°40' W 074°05'0 0.0
2015-Sep-10 03:33N 40°40' W 074°05'0 0.0
2015-Sep-10 02:33N 40°40' W 074°05'0 0.0
2015-Sep-10 01:33N 40°40' W 074°05'0 0.0
2015-Sep-10 00:33N 40°40' W 074°05'0 0.0
2015-Sep-09 23:33N 40°40' W 074°05'0 0.0
2015-Sep-09 22:33N 40°40' W 074°05'0 0.0
2015-Sep-09 21:33N 40°40' W 074°05'0 0.0
2015-Sep-09 20:33N 40°40' W 074°05'0 0.0
2015-Sep-09 19:33N 40°40' W 074°05'0 0.0
2015-Sep-09 18:33N 40°40' W 074°05'0 0.0
2015-Sep-09 17:33N 40°40' W 074°05'0 0.0
2015-Sep-09 16:33N 40°40' W 074°05'0 0.0
2015-Sep-09 15:33N 40°40' W 074°05'0 0.0
2015-Sep-09 14:33N 40°40' W 074°05'0 0.0
2015-Sep-09 13:33N 40°40' W 074°05'0 0.0
2015-Sep-09 12:33N 40°40' W 074°05'0 0.0
2015-Sep-09 11:33N 40°40' W 074°05'0 0.0
2015-Sep-09 10:33N 40°40' W 074°05'0 0.0
2015-Sep-09 09:33N 40°40' W 074°05'0 0.0
2015-Sep-09 08:33N 40°40' W 074°05'0 0.0
2015-Sep-09 07:33N 40°40' W 074°05'0 0.0
2015-Sep-09 06:33N 40°40' W 074°05'0 0.0
2015-Sep-09 05:33N 40°40' W 074°05'0 0.0
2015-Sep-09 04:33N 40°40' W 074°05'0 0.0
2015-Sep-09 03:33N 40°40' W 074°05'0 0.0
2015-Sep-09 02:33N 40°40' W 074°05'0 0.0
2015-Sep-09 01:33N 40°40' W 074°05'3 2.8
2015-Sep-09 00:33N 40°38' W 074°03'7 7.0
2015-Sep-08 23:34N 40°31' W 074°00'1414.4
2015-Sep-08 22:34N 40°24' W 073°44'1515.4
2015-Sep-08 21:34N 40°16' W 073°27'1414.3
2015-Sep-08 20:33N 40°06' W 073°13'1414.4
2015-Sep-08 19:33N 39°56' W 072°59'7615.0
2015-Sep-08 14:31N 39°03' W 071°50'1415.0
2015-Sep-08 13:33N 38°53' W 071°36'1515.1
2015-Sep-08 12:33N 38°42' W 071°23'1514.9
2015-Sep-08 11:33N 38°31' W 071°09'1514.8
2015-Sep-08 10:33N 38°21' W 070°56'1515.0
2015-Sep-08 09:33N 38°11' W 070°42'1615.2
2015-Sep-08 08:31N 37°59' W 070°28'2914.5
2015-Sep-08 06:32N 37°36' W 070°07'8014.9
2015-Sep-08 01:09N 36°27' W 069°15'  
Track history (hours):
 
Tides and Currents Weather Stations Pressure Air Temp Water Temp Dewpoint Dewpoint Depression Visibility Wind Speed Wind Dir Waves Ship Positions

MSC Turchia

Last reported at 2015-Sep-17 19:31 UTC. Time now 2016-Feb-10 06:46 UTC.
Position N 26°04' W 080°07'.
Warning: this ship's position is months out of date.

Length 276 m; beam 40 m; draft 14 m.

Date/timePositionNaut miles runAvg speedWind from/ knotsBaromVisibWave heightAir tempDewpointWater temp
2015-Sep-17 19:31N 26°04' W 080°07'0 0.0
2015-Sep-17 18:31N 26°04' W 080°07'0 0.0
2015-Sep-17 17:31N 26°04' W 080°07'0 0.1
2015-Sep-17 16:34N 26°04' W 080°07'3 3.2
2015-Sep-17 15:33N 26°05' W 080°04'3 3.4
2015-Sep-17 14:33N 26°08' W 080°02'0 0.4
2015-Sep-17 13:33N 26°08' W 080°01'1110.9
2015-Sep-17 12:33N 26°19' W 079°59'1110.9
2015-Sep-17 11:33N 26°29' W 079°56'1110.6
2015-Sep-17 10:33N 26°40' W 079°53'1010.4
2015-Sep-17 09:33N 26°50' W 079°55'1111.0
2015-Sep-17 08:33N 27°01' W 079°56'1110.1
2015-Sep-17 07:27N 27°12' W 079°57'  
2015-Sep-13 17:24N 34°13' W 076°26'1113.5
2015-Sep-13 16:33N 34°22' W 076°17'1413.6
2015-Sep-13 15:33N 34°32' W 076°07'240 5.7
2015-Sep-11 21:15N 38°22' W 074°40'912.4
2015-Sep-11 20:33N 38°29' W 074°46'1312.8
2015-Sep-11 19:33N 38°40' W 074°56'1413.7
2015-Sep-11 18:33N 38°51' W 075°05'1616.1
2015-Sep-11 17:33N 39°06' W 075°12'3615.5
2015-Sep-11 15:15N 39°38' W 075°35'812.0
2015-Sep-11 14:33N 39°45' W 075°29'1010.3
2015-Sep-11 13:33N 39°51' W 075°18'8 8.3
2015-Sep-11 12:32N 39°54' W 075°08'0 0.1
2015-Sep-11 11:32N 39°54' W 075°08'0 0.0
2015-Sep-11 10:32N 39°54' W 075°08'0 0.0
2015-Sep-11 09:32N 39°54' W 075°08'0 0.0
2015-Sep-11 08:32N 39°54' W 075°08'0 0.0
2015-Sep-11 07:32N 39°54' W 075°08'0 0.0
2015-Sep-11 06:32N 39°54' W 075°08'0 0.0
2015-Sep-11 05:32N 39°54' W 075°08'0 0.0
2015-Sep-11 04:32N 39°54' W 075°08'0 0.0
2015-Sep-11 03:32N 39°54' W 075°08'0 0.0
2015-Sep-11 02:32N 39°54' W 075°08'0 0.4
2015-Sep-11 01:33N 39°54' W 075°08'8 7.5
2015-Sep-11 00:33N 39°51' W 075°17'1110.6
2015-Sep-10 23:33N 39°45' W 075°29'1312.6
2015-Sep-10 22:34N 39°33' W 075°32'3115.6
2015-Sep-10 20:33N 39°06' W 075°12'1414.3
2015-Sep-10 19:33N 38°53' W 075°05'10 9.8
2015-Sep-10 18:33N 38°45' W 074°57'1715.5
2015-Sep-10 17:29N 38°32' W 074°44'9 9.7
2015-Sep-10 16:33N 38°34' W 074°33'1915.2
2015-Sep-10 15:17N 38°52' W 074°22'1215.8
2015-Sep-10 14:31N 39°03' W 074°15'1516.0
2015-Sep-10 13:33N 39°17' W 074°07'1616.0
2015-Sep-10 12:33N 39°31' W 073°58'1715.6
2015-Sep-10 11:29N 39°47' W 073°52'1716.2
2015-Sep-10 10:28N 40°04' W 073°51'1516.1
2015-Sep-10 09:33N 40°18' W 073°49'1111.1
2015-Sep-10 08:33N 40°29' W 073°54'1312.9
2015-Sep-10 07:34N 40°39' W 074°03'2 1.6
2015-Sep-10 06:33N 40°40' W 074°05'0 0.0
2015-Sep-10 05:33N 40°40' W 074°05'0 0.0
2015-Sep-10 04:33N 40°40' W 074°05'0 0.0
2015-Sep-10 03:33N 40°40' W 074°05'0 0.0
2015-Sep-10 02:33N 40°40' W 074°05'0 0.0
2015-Sep-10 01:33N 40°40' W 074°05'0 0.0
2015-Sep-10 00:33N 40°40' W 074°05'0 0.0
2015-Sep-09 23:33N 40°40' W 074°05'0 0.0
2015-Sep-09 22:33N 40°40' W 074°05'0 0.0
2015-Sep-09 21:33N 40°40' W 074°05'0 0.0
2015-Sep-09 20:33N 40°40' W 074°05'0 0.0
2015-Sep-09 19:33N 40°40' W 074°05'0 0.0
2015-Sep-09 18:33N 40°40' W 074°05'0 0.0
2015-Sep-09 17:33N 40°40' W 074°05'0 0.0
2015-Sep-09 16:33N 40°40' W 074°05'0 0.0
2015-Sep-09 15:33N 40°40' W 074°05'0 0.0
2015-Sep-09 14:33N 40°40' W 074°05'0 0.0
2015-Sep-09 13:33N 40°40' W 074°05'0 0.0
2015-Sep-09 12:33N 40°40' W 074°05'0 0.0
2015-Sep-09 11:33N 40°40' W 074°05'0 0.0
2015-Sep-09 10:33N 40°40' W 074°05'0 0.0
2015-Sep-09 09:33N 40°40' W 074°05'0 0.0
2015-Sep-09 08:33N 40°40' W 074°05'0 0.0
2015-Sep-09 07:33N 40°40' W 074°05'0 0.0
2015-Sep-09 06:33N 40°40' W 074°05'0 0.0
2015-Sep-09 05:33N 40°40' W 074°05'0 0.0
2015-Sep-09 04:33N 40°40' W 074°05'0 0.0
2015-Sep-09 03:33N 40°40' W 074°05'0 0.0
2015-Sep-09 02:33N 40°40' W 074°05'0 0.0
2015-Sep-09 01:33N 40°40' W 074°05'3 2.8
2015-Sep-09 00:33N 40°38' W 074°03'7 7.0
2015-Sep-08 23:34N 40°31' W 074°00'1414.4
2015-Sep-08 22:34N 40°24' W 073°44'1515.4
2015-Sep-08 21:34N 40°16' W 073°27'1414.3
2015-Sep-08 20:33N 40°06' W 073°13'1414.4
2015-Sep-08 19:33N 39°56' W 072°59'7615.0
2015-Sep-08 14:31N 39°03' W 071°50'1415.0
2015-Sep-08 13:33N 38°53' W 071°36'1515.1
2015-Sep-08 12:33N 38°42' W 071°23'1514.9
2015-Sep-08 11:33N 38°31' W 071°09'1514.8
2015-Sep-08 10:33N 38°21' W 070°56'1515.0
2015-Sep-08 09:33N 38°11' W 070°42'1615.2
2015-Sep-08 08:31N 37°59' W 070°28'2914.5
2015-Sep-08 06:32N 37°36' W 070°07'8014.9
2015-Sep-08 01:09N 36°27' W 069°15'  

Dump ship's entire track history